createdAt,value
2019-04-09T00:01:20.020Z,10.40
2019-04-09T00:03:50.818Z,10.20
2019-04-09T00:06:21.460Z,10.20
2019-04-09T00:08:52.100Z,10.20
2019-04-09T00:11:22.769Z,10.20
2019-04-09T00:13:55.367Z,10.20
2019-04-09T00:16:25.997Z,10.20
2019-04-09T00:18:56.577Z,10.10
2019-04-09T00:21:28.178Z,10.10
2019-04-09T00:23:59.473Z,10.20
2019-04-09T00:26:42.443Z,10.20
2019-04-09T00:29:02.330Z,10.30
2019-04-09T00:31:32.841Z,10.30
2019-04-09T00:34:03.472Z,10.30
2019-04-09T00:36:34.047Z,10.40
2019-04-09T00:39:06.179Z,10.30
2019-04-09T00:41:37.910Z,10.20
2019-04-09T00:44:10.212Z,10.20
2019-04-09T00:46:40.977Z,10.30
2019-04-09T00:49:11.580Z,10.30
2019-04-09T00:51:42.137Z,10.20
2019-04-09T00:54:12.899Z,10.20
2019-04-09T00:56:55.003Z,10.20
2019-04-09T00:59:15.643Z,10.20
2019-04-09T01:01:46.397Z,10.30
2019-04-09T01:04:16.988Z,10.30
2019-04-09T01:06:47.753Z,10.30
2019-04-09T01:09:20.916Z,10.30
2019-04-09T01:11:52.675Z,10.30
2019-04-09T01:14:23.986Z,10.20
2019-04-09T01:16:54.600Z,10.20
2019-04-09T01:19:26.142Z,10.20
2019-04-09T01:21:56.857Z,10.20
2019-04-09T01:24:34.019Z,10.20
2019-04-09T01:27:13.628Z,10.30
2019-04-09T01:29:49.809Z,10.40
2019-04-09T01:32:37.985Z,10.20
2019-04-09T01:35:30.931Z,10.20
2019-04-09T01:38:14.692Z,10.30
2019-04-09T01:41:02.668Z,10.30
2019-04-09T01:43:52.150Z,10.30
2019-04-09T01:46:51.355Z,10.30
2019-04-09T01:49:39.725Z,10.20
2019-04-09T01:52:16.954Z,10.30
2019-04-09T01:55:13.528Z,10.30
2019-04-09T01:58:08.991Z,10.40
2019-04-09T02:01:01.459Z,10.40
2019-04-09T02:03:51.964Z,10.30
2019-04-09T02:06:32.726Z,10.30
2019-04-09T02:09:15.904Z,10.30
2019-04-09T02:12:08.389Z,10.30
2019-04-09T02:14:48.363Z,10.30
2019-04-09T02:17:49.727Z,10.30
2019-04-09T02:20:37.793Z,10.10
2019-04-09T02:23:13.918Z,10.00
2019-04-09T02:26:15.467Z,9.90
2019-04-09T02:29:07.424Z,9.90
2019-04-09T02:31:55.566Z,9.80
2019-04-09T02:37:34.460Z,9.90
2019-04-09T02:40:25.361Z,9.90
2019-04-09T02:43:20.759Z,9.90
2019-04-09T02:46:10.188Z,9.90
2019-04-09T02:49:01.983Z,9.90
2019-04-09T02:51:51.346Z,9.90
2019-04-09T02:54:39.974Z,10.00
2019-04-09T02:57:28.840Z,9.90
2019-04-09T03:00:28.022Z,9.90
2019-04-09T03:03:10.720Z,10.00
2019-04-09T03:05:53.487Z,10.00
2019-04-09T03:08:52.072Z,10.00
2019-04-09T03:11:44.335Z,10.00
2019-04-09T03:14:46.622Z,10.10
2019-04-09T03:17:32.052Z,10.10
2019-04-09T03:20:24.188Z,10.10
2019-04-09T03:23:13.580Z,10.10
2019-04-09T03:26:01.705Z,10.10
2019-04-09T03:28:45.098Z,10.10
2019-04-09T03:31:30.006Z,10.10
2019-04-09T03:34:20.080Z,10.10
2019-04-09T03:37:08.182Z,10.10
2019-04-09T03:39:56.401Z,10.00
2019-04-09T03:42:48.855Z,10.00
2019-04-09T03:45:36.837Z,9.90
2019-04-09T03:48:38.083Z,10.00
2019-04-09T03:51:24.901Z,10.00
2019-04-09T03:54:20.404Z,10.10
2019-04-09T03:57:15.464Z,10.00
2019-04-09T04:00:02.924Z,10.00
2019-04-09T04:05:32.992Z,9.90
2019-04-09T04:08:22.824Z,10.00
2019-04-09T04:11:24.124Z,9.90
2019-04-09T04:14:13.535Z,9.90
2019-04-09T04:17:03.830Z,9.80
2019-04-09T04:19:52.481Z,9.80
2019-04-09T04:22:44.605Z,9.80
2019-04-09T04:25:39.944Z,9.80
2019-04-09T04:28:35.028Z,9.70
2019-04-09T04:31:19.527Z,9.80
2019-04-09T04:34:23.944Z,9.00
2019-04-09T04:37:12.631Z,9.70
2019-04-09T04:40:07.980Z,9.70
2019-04-09T04:42:50.761Z,9.60
2019-04-09T04:45:38.920Z,9.60
2019-04-09T04:48:37.898Z,9.60
2019-04-09T04:51:25.961Z,9.60
2019-04-09T04:54:03.727Z,9.60
2019-04-09T04:56:46.821Z,9.50
2019-04-09T04:59:35.787Z,9.50
2019-04-09T05:02:24.742Z,9.50
2019-04-09T05:05:17.083Z,9.50
2019-04-09T05:07:55.889Z,9.40
2019-04-09T05:10:50.134Z,9.40
2019-04-09T05:13:32.936Z,9.40
2019-04-09T05:16:22.374Z,9.40
2019-04-09T05:19:30.627Z,9.40
2019-04-09T05:22:19.021Z,9.40
2019-04-09T05:24:58.646Z,9.40
2019-04-09T05:27:54.364Z,9.40
2019-04-09T05:30:39.448Z,9.40
2019-04-09T05:33:37.789Z,9.40
2019-04-09T05:36:15.978Z,9.30
2019-04-09T05:39:05.320Z,9.30
2019-04-09T05:42:00.896Z,9.30
2019-04-09T05:44:50.278Z,9.30
2019-04-09T05:47:45.832Z,9.30
2019-04-09T05:50:25.725Z,9.30
2019-04-09T05:53:11.540Z,9.30
2019-04-09T05:55:59.736Z,9.20
2019-04-09T05:59:04.778Z,9.10
2019-04-09T06:01:45.034Z,9.10
2019-04-09T06:04:32.546Z,9.00
2019-04-09T06:07:16.589Z,9.00
2019-04-09T06:09:47.264Z,8.90
2019-04-09T06:12:17.823Z,8.90
2019-04-09T06:14:49.332Z,8.90
2019-04-09T06:17:21.117Z,8.90
2019-04-09T06:19:52.531Z,8.80
2019-04-09T06:22:23.302Z,8.80
2019-04-09T06:24:54.148Z,8.70
2019-04-09T06:27:24.676Z,8.70
2019-04-09T06:29:56.220Z,8.60
2019-04-09T06:32:37.285Z,8.10
2019-04-09T06:35:21.448Z,8.70
2019-04-09T06:38:17.219Z,8.70
2019-04-09T06:40:59.199Z,8.80
2019-04-09T06:43:46.988Z,8.70
2019-04-09T06:46:24.054Z,8.80
2019-04-09T06:49:32.514Z,8.70
2019-04-09T06:52:34.714Z,8.80
2019-04-09T06:55:23.589Z,8.70
2019-04-09T06:58:12.194Z,8.70
2019-04-09T07:01:01.627Z,8.70
2019-04-09T07:03:57.244Z,8.70
2019-04-09T07:06:39.152Z,8.70
2019-04-09T07:09:28.029Z,8.60
2019-04-09T07:12:31.261Z,8.50
2019-04-09T07:15:25.127Z,8.50
2019-04-09T07:18:06.988Z,8.50
2019-04-09T07:20:52.085Z,8.50
2019-04-09T07:23:44.565Z,8.50
2019-04-09T07:26:27.889Z,8.50
2019-04-09T07:29:17.607Z,8.60
2019-04-09T07:32:16.226Z,8.60
2019-04-09T07:35:06.341Z,8.60
2019-04-09T07:40:50.561Z,8.70
2019-04-09T07:43:40.076Z,8.60
2019-04-09T07:46:28.194Z,8.70
2019-04-09T07:49:23.614Z,8.60
2019-04-09T07:52:16.198Z,8.60
2019-04-09T07:55:02.630Z,8.60
2019-04-09T07:57:42.559Z,8.70
2019-04-09T08:00:36.916Z,8.70
2019-04-09T08:03:28.795Z,8.70
2019-04-09T08:06:07.596Z,8.70
2019-04-09T08:11:44.550Z,8.80
2019-04-09T08:14:37.662Z,8.80
2019-04-09T08:17:15.106Z,8.80
2019-04-09T08:20:05.728Z,8.60
2019-04-09T08:22:58.580Z,8.60
2019-04-09T08:26:06.744Z,8.60
2019-04-09T08:29:05.348Z,8.60
2019-04-09T08:32:11.132Z,8.60
2019-04-09T08:34:47.401Z,8.70
2019-04-09T08:40:13.426Z,8.70
2019-04-09T08:43:05.309Z,8.80
2019-04-09T08:45:47.209Z,8.90
2019-04-09T08:48:46.015Z,8.90
2019-04-09T08:51:25.982Z,8.90
2019-04-09T08:54:31.478Z,8.80
2019-04-09T08:57:15.223Z,8.90
2019-04-09T08:59:54.194Z,8.80
2019-04-09T09:02:51.254Z,8.70
2019-04-09T09:05:53.809Z,8.70
2019-04-09T09:08:38.082Z,8.70
2019-04-09T09:11:25.276Z,8.80
2019-04-09T09:14:18.305Z,8.70
2019-04-09T09:17:08.262Z,8.80
2019-04-09T09:19:46.919Z,8.70
2019-04-09T09:22:39.213Z,8.70
2019-04-09T09:25:26.575Z,8.80
2019-04-09T09:28:24.661Z,8.80
2019-04-09T09:31:33.470Z,8.80
2019-04-09T09:34:24.525Z,8.70
2019-04-09T09:37:15.665Z,8.70
2019-04-09T09:40:19.657Z,8.70
2019-04-09T09:43:18.851Z,8.70
2019-04-09T09:46:24.885Z,8.80
2019-04-09T09:49:04.229Z,8.70
2019-04-09T09:51:54.323Z,8.70
2019-04-09T09:54:47.387Z,8.70
2019-04-09T09:57:25.676Z,8.70
2019-04-09T10:00:12.756Z,8.60
2019-04-09T10:03:10.922Z,8.70
2019-04-09T10:05:54.212Z,8.70
2019-04-09T10:08:35.140Z,8.80
2019-04-09T10:11:23.419Z,8.70
2019-04-09T10:14:11.882Z,8.80
2019-04-09T10:17:00.056Z,8.80
2019-04-09T10:19:48.513Z,8.90
2019-04-09T10:22:41.539Z,8.80
2019-04-09T10:25:30.180Z,8.90
2019-04-09T10:28:24.853Z,8.90
2019-04-09T10:31:37.464Z,8.80
2019-04-09T10:34:21.697Z,8.70
2019-04-09T10:37:19.615Z,8.80
2019-04-09T10:39:51.610Z,8.80
2019-04-09T10:42:50.485Z,8.70
2019-04-09T10:45:30.201Z,8.80
2019-04-09T10:48:37.646Z,8.80
2019-04-09T10:51:19.558Z,8.80
2019-04-09T10:54:14.521Z,8.80
2019-04-09T10:57:11.220Z,8.80
2019-04-09T11:00:02.906Z,8.80
2019-04-09T11:02:41.981Z,8.90
2019-04-09T11:05:30.940Z,8.90
2019-04-09T11:08:19.223Z,8.90
2019-04-09T11:11:16.493Z,9.00
2019-04-09T11:13:54.740Z,8.90
2019-04-09T11:16:50.586Z,8.90
2019-04-09T11:19:46.105Z,9.00
2019-04-09T11:22:33.144Z,8.90
2019-04-09T11:28:15.177Z,9.00
2019-04-09T11:31:04.539Z,9.10
2019-04-09T11:33:57.385Z,9.20
2019-04-09T11:36:39.137Z,9.30
2019-04-09T11:39:38.505Z,9.20
2019-04-09T11:42:27.511Z,9.20
2019-04-09T11:45:20.045Z,9.10
2019-04-09T11:48:01.878Z,9.20
2019-04-09T11:50:45.505Z,9.10
2019-04-09T11:53:34.278Z,9.10
2019-04-09T11:56:28.820Z,9.00
2019-04-09T11:59:11.386Z,9.00
2019-04-09T12:02:13.023Z,9.00
2019-04-09T12:05:04.667Z,9.10
2019-04-09T12:08:09.153Z,9.00
2019-04-09T12:11:02.742Z,9.00
2019-04-09T12:13:50.855Z,9.00
2019-04-09T12:16:43.737Z,9.00
2019-04-09T12:19:24.745Z,9.00
2019-04-09T12:22:16.464Z,9.00
2019-04-09T12:25:01.842Z,9.10
2019-04-09T12:28:10.947Z,9.10
2019-04-09T12:31:12.397Z,9.20
2019-04-09T12:34:06.162Z,9.10
2019-04-09T12:36:49.153Z,9.10
2019-04-09T12:39:42.200Z,9.10
2019-04-09T12:42:30.272Z,9.10
2019-04-09T12:48:00.236Z,9.10
2019-04-09T12:50:39.003Z,9.20
2019-04-09T12:53:18.223Z,9.20
2019-04-09T12:58:40.979Z,9.20
2019-04-09T13:01:29.601Z,9.30
2019-04-09T13:04:19.879Z,9.30
2019-04-09T13:07:09.791Z,9.20
2019-04-09T13:10:15.644Z,9.30
2019-04-09T13:13:01.629Z,9.30
2019-04-09T13:16:03.017Z,9.30
2019-04-09T13:18:51.304Z,9.30
2019-04-09T13:21:41.220Z,9.20
2019-04-09T13:24:25.188Z,9.20
2019-04-09T13:27:04.766Z,9.20
2019-04-09T13:29:57.395Z,9.20
2019-04-09T13:32:41.220Z,9.10
2019-04-09T13:35:17.383Z,9.10
2019-04-09T13:37:55.730Z,9.00
2019-04-09T13:43:11.192Z,9.00
2019-04-09T13:46:00.593Z,9.00
2019-04-09T13:48:50.363Z,9.00
2019-04-09T13:51:28.264Z,9.30
2019-04-09T13:53:59.466Z,9.20
2019-04-09T13:56:29.968Z,9.00
2019-04-09T13:59:01.430Z,9.00
2019-04-09T14:01:32.100Z,9.00
2019-04-09T14:04:07.108Z,9.00
2019-04-09T14:06:37.752Z,9.00
2019-04-09T14:09:09.779Z,9.00
2019-04-09T14:11:40.799Z,9.00
2019-04-09T14:14:12.246Z,9.10
2019-04-09T14:16:43.086Z,9.10
2019-04-09T14:19:13.729Z,9.10
2019-04-09T14:21:44.552Z,9.10
2019-04-09T14:24:15.248Z,9.10
2019-04-09T14:26:45.821Z,9.10
2019-04-09T14:29:16.688Z,9.10
2019-04-09T14:31:48.478Z,9.10
2019-04-09T14:34:19.197Z,9.10
2019-04-09T14:36:50.820Z,9.10
2019-04-09T14:39:21.616Z,9.10
2019-04-09T14:41:52.801Z,9.10
2019-04-09T14:44:23.718Z,9.00
2019-04-09T14:46:54.285Z,9.10
2019-04-09T14:49:25.049Z,9.20
2019-04-09T14:51:56.106Z,9.10
2019-04-09T14:57:16.606Z,9.10
2019-04-09T14:59:47.217Z,9.20
2019-04-09T15:02:17.987Z,8.90
2019-04-09T15:04:48.609Z,9.20
2019-04-09T15:07:19.214Z,9.20
2019-04-09T15:09:50.632Z,9.20
2019-04-09T15:12:21.670Z,9.20
2019-04-09T15:14:53.123Z,9.30
2019-04-09T15:17:23.740Z,9.30
2019-04-09T15:19:54.588Z,9.20
2019-04-09T15:22:25.144Z,9.30
2019-04-09T15:24:55.681Z,9.30
2019-04-09T15:27:26.196Z,9.40
2019-04-09T15:29:56.795Z,9.50
2019-04-09T15:32:28.204Z,9.40
2019-04-09T15:34:59.956Z,9.40
2019-04-09T15:37:30.537Z,9.50
2019-04-09T15:40:01.100Z,9.50
2019-04-09T15:42:34.136Z,9.40
2019-04-09T15:45:05.027Z,9.50
2019-04-09T15:47:35.802Z,9.50
2019-04-09T15:50:08.076Z,9.60
2019-04-09T15:52:38.938Z,9.60
2019-04-09T15:55:12.412Z,9.60
2019-04-09T15:57:42.208Z,9.60
2019-04-09T16:00:12.777Z,9.60
2019-04-09T16:02:43.312Z,9.60
2019-04-09T16:05:13.843Z,9.60
2019-04-09T16:07:44.730Z,9.60
2019-04-09T16:10:16.473Z,9.70
2019-04-09T16:12:47.492Z,9.60
2019-04-09T16:15:18.876Z,9.60
2019-04-09T16:17:50.218Z,9.70
2019-04-09T16:20:20.845Z,9.70
2019-04-09T16:22:51.412Z,9.70
2019-04-09T16:25:22.750Z,9.70
2019-04-09T16:27:53.328Z,9.80
2019-04-09T16:30:23.943Z,9.70
2019-04-09T16:33:04.650Z,9.80
2019-04-09T16:35:26.640Z,9.80
2019-04-09T16:37:57.244Z,9.90
2019-04-09T16:40:28.686Z,9.90
2019-04-09T16:43:06.127Z,9.90
2019-04-09T16:45:37.711Z,9.80
2019-04-09T16:48:08.386Z,9.80
2019-04-09T16:50:39.698Z,9.90
2019-04-09T16:53:11.162Z,9.90
2019-04-09T16:55:41.803Z,9.90
2019-04-09T16:58:13.003Z,9.90
2019-04-09T17:00:43.492Z,9.80
2019-04-09T17:03:14.772Z,9.80
2019-04-09T17:05:46.598Z,9.80
2019-04-09T17:08:18.223Z,9.90
2019-04-09T17:10:49.916Z,9.90
2019-04-09T17:16:09.822Z,10.00
2019-04-09T17:18:41.249Z,10.00
2019-04-09T17:21:12.877Z,10.00
2019-04-09T17:23:43.548Z,10.10
2019-04-09T17:29:02.963Z,10.20
2019-04-09T17:31:33.568Z,10.10
2019-04-09T17:34:04.105Z,10.10
2019-04-09T17:36:34.690Z,10.10
2019-04-09T17:39:08.776Z,10.20
2019-04-09T17:41:39.318Z,10.10
2019-04-09T17:44:10.906Z,10.10
2019-04-09T17:46:41.595Z,10.10
2019-04-09T17:49:13.090Z,10.10
2019-04-09T17:51:43.815Z,10.10
2019-04-09T17:54:14.431Z,10.00
2019-04-09T17:56:45.929Z,10.00
2019-04-09T17:59:16.586Z,9.90
2019-04-09T18:01:47.414Z,9.80
2019-04-09T18:04:18.110Z,9.80
2019-04-09T18:09:24.678Z,9.70
2019-04-09T18:11:55.545Z,9.60
2019-04-09T18:14:26.898Z,9.60
2019-04-09T18:16:58.445Z,9.60
2019-04-09T18:19:29.061Z,9.50
2019-04-09T18:21:59.781Z,9.50
2019-04-09T18:24:32.308Z,9.50
2019-04-09T18:27:03.589Z,9.40
2019-04-09T18:29:34.167Z,9.40
2019-04-09T18:32:05.250Z,9.40
2019-04-09T18:34:49.277Z,9.30
2019-04-09T18:37:10.066Z,9.30
2019-04-09T18:39:41.614Z,9.30
2019-04-09T18:42:12.248Z,9.20
2019-04-09T18:44:42.885Z,9.20
2019-04-09T18:47:13.706Z,9.20
2019-04-09T18:49:44.464Z,9.20
2019-04-09T18:52:15.410Z,9.10
2019-04-09T18:54:46.165Z,9.10
2019-04-09T18:57:17.610Z,9.10
2019-04-09T18:59:49.257Z,9.10
2019-04-09T19:02:20.683Z,9.10
2019-04-09T19:07:34.496Z,9.10
2019-04-09T19:10:06.431Z,9.10
2019-04-09T19:12:37.090Z,9.10
2019-04-09T19:15:08.585Z,9.00
2019-04-09T19:17:39.339Z,9.00
2019-04-09T19:20:10.137Z,9.00
2019-04-09T19:22:41.875Z,8.90
2019-04-09T19:25:13.645Z,8.90
2019-04-09T19:27:44.545Z,8.90
2019-04-09T19:30:16.485Z,8.90
2019-04-09T19:32:47.552Z,8.90
2019-04-09T19:35:23.873Z,8.80
2019-04-09T19:37:51.050Z,8.70
2019-04-09T19:40:25.840Z,8.70
2019-04-09T19:42:57.628Z,8.70
2019-04-09T19:45:31.707Z,8.70
2019-04-09T19:50:44.268Z,8.60
2019-04-09T19:53:15.855Z,8.60
2019-04-09T19:55:46.773Z,8.60
2019-04-09T19:58:17.425Z,8.50
2019-04-09T20:00:48.158Z,8.50
2019-04-09T20:03:19.063Z,8.60
2019-04-09T20:05:50.718Z,8.60
2019-04-09T20:08:21.421Z,8.50
2019-04-09T20:10:52.938Z,8.50
2019-04-09T20:13:23.891Z,8.40
2019-04-09T20:15:54.684Z,8.40
2019-04-09T20:18:25.947Z,8.30
2019-04-09T20:20:56.923Z,8.30
2019-04-09T20:23:28.825Z,8.20
2019-04-09T20:26:00.018Z,8.20
2019-04-09T20:28:30.631Z,8.20
2019-04-09T20:31:01.264Z,8.10
2019-04-09T20:33:32.033Z,8.20
2019-04-09T20:36:03.636Z,8.10
2019-04-09T20:38:35.448Z,8.10
2019-04-09T20:41:06.097Z,8.10
2019-04-09T20:43:36.723Z,8.00
2019-04-09T20:46:07.298Z,7.90
2019-04-09T20:48:38.127Z,7.90
2019-04-09T20:51:09.006Z,7.90
2019-04-09T20:53:40.294Z,7.80
2019-04-09T20:56:10.973Z,7.80
2019-04-09T20:58:42.619Z,7.80
2019-04-09T21:01:41.048Z,7.70
2019-04-09T21:04:12.829Z,7.70
2019-04-09T21:06:43.324Z,7.60
2019-04-09T21:09:14.021Z,7.50
2019-04-09T21:11:44.640Z,7.50
2019-04-09T21:14:16.009Z,7.40
2019-04-09T21:16:46.961Z,7.40
2019-04-09T21:19:18.717Z,7.40
2019-04-09T21:21:49.929Z,7.30
2019-04-09T21:24:21.534Z,7.30
2019-04-09T21:26:54.408Z,7.30
2019-04-09T21:29:25.036Z,7.20
2019-04-09T21:31:55.777Z,7.20
2019-04-09T21:34:26.477Z,7.20
2019-04-09T21:36:57.711Z,7.10
2019-04-09T21:39:29.282Z,7.10
2019-04-09T21:42:00.069Z,7.00
2019-04-09T21:44:31.093Z,7.00
2019-04-09T21:47:01.735Z,7.00
2019-04-09T21:49:32.289Z,6.90
2019-04-09T21:52:02.845Z,6.90
2019-04-09T21:54:33.735Z,6.90
2019-04-09T21:59:55.808Z,6.80
2019-04-09T22:02:26.801Z,6.80
2019-04-09T22:04:58.230Z,6.80
2019-04-09T22:07:29.140Z,6.70
2019-04-09T22:09:59.732Z,6.80
2019-04-09T22:12:30.329Z,6.70
2019-04-09T22:15:00.950Z,6.70
2019-04-09T22:17:31.982Z,6.80
2019-04-09T22:20:04.306Z,6.80
2019-04-09T22:28:18.463Z,6.70
2019-04-09T22:30:49.178Z,6.70
2019-04-09T22:33:20.419Z,6.70
2019-04-09T22:35:51.502Z,6.70
2019-04-09T22:38:22.847Z,6.70
2019-04-09T22:40:53.788Z,6.60
2019-04-09T22:43:24.904Z,6.60
2019-04-09T22:45:55.794Z,6.60
2019-04-09T22:48:26.641Z,6.50
2019-04-09T22:50:58.792Z,6.50
2019-04-09T22:53:30.313Z,6.40
2019-04-09T22:56:01.299Z,6.40
2019-04-09T22:58:32.964Z,6.40
2019-04-09T23:01:22.236Z,6.30
2019-04-09T23:04:09.720Z,6.30
2019-04-09T23:07:02.112Z,6.30
2019-04-09T23:09:51.697Z,6.30
2019-04-09T23:12:47.080Z,6.30
2019-04-09T23:15:39.745Z,6.20
2019-04-09T23:18:10.892Z,6.20
2019-04-09T23:20:41.501Z,6.10
2019-04-09T23:23:13.471Z,6.10
2019-04-09T23:25:44.729Z,6.10
2019-04-09T23:28:16.380Z,6.00
2019-04-09T23:30:47.013Z,6.00
2019-04-09T23:33:18.479Z,6.00
2019-04-09T23:35:49.633Z,6.00
2019-04-09T23:38:20.946Z,5.90
2019-04-09T23:40:51.869Z,5.90
2019-04-09T23:43:22.992Z,5.90
2019-04-09T23:45:55.048Z,5.90
2019-04-09T23:48:26.250Z,5.90
2019-04-09T23:50:58.117Z,5.80
2019-04-09T23:53:29.388Z,5.80
2019-04-09T23:56:01.031Z,5.80
2019-04-09T23:58:31.578Z,5.80
